sensor_id;sensor_type;location;lat;lon;timestamp;P1;durP1;ratioP1;P2;durP2;ratioP2
57443;SDS011;43289;52.962;6.196;2022-09-23T00:01:24;12.23;;;10.93;;
57443;SDS011;43289;52.962;6.196;2022-09-23T00:03:50;13.73;;;10.70;;
57443;SDS011;43289;52.962;6.196;2022-09-23T00:06:21;14.38;;;11.57;;
57443;SDS011;43289;52.962;6.196;2022-09-23T00:08:48;14.82;;;10.68;;
57443;SDS011;43289;52.962;6.196;2022-09-23T00:11:18;13.02;;;11.23;;
57443;SDS011;43289;52.962;6.196;2022-09-23T00:13:45;13.27;;;11.07;;
57443;SDS011;43289;52.962;6.196;2022-09-23T00:16:16;11.48;;;10.27;;
57443;SDS011;43289;52.962;6.196;2022-09-23T00:18:42;11.20;;;10.02;;
57443;SDS011;43289;52.962;6.196;2022-09-23T00:21:12;11.13;;;9.77;;
57443;SDS011;43289;52.962;6.196;2022-09-23T00:23:39;14.07;;;10.15;;
57443;SDS011;43289;52.962;6.196;2022-09-23T00:26:06;14.02;;;10.82;;
57443;SDS011;43289;52.962;6.196;2022-09-23T00:28:33;16.65;;;11.30;;
57443;SDS011;43289;52.962;6.196;2022-09-23T00:31:03;14.80;;;10.88;;
57443;SDS011;43289;52.962;6.196;2022-09-23T00:33:29;15.90;;;11.18;;
57443;SDS011;43289;52.962;6.196;2022-09-23T00:36:04;12.77;;;10.75;;
57443;SDS011;43289;52.962;6.196;2022-09-23T00:40:58;14.20;;;11.57;;
57443;SDS011;43289;52.962;6.196;2022-09-23T00:46:09;13.40;;;11.65;;
57443;SDS011;43289;52.962;6.196;2022-09-23T00:48:38;13.85;;;12.32;;
57443;SDS011;43289;52.962;6.196;2022-09-23T00:51:06;13.50;;;11.82;;
57443;SDS011;43289;52.962;6.196;2022-09-23T00:53:34;16.80;;;12.02;;
57443;SDS011;43289;52.962;6.196;2022-09-23T00:56:01;14.88;;;12.77;;
57443;SDS011;43289;52.962;6.196;2022-09-23T00:58:28;15.20;;;12.70;;
57443;SDS011;43289;52.962;6.196;2022-09-23T01:01:00;14.52;;;11.75;;
57443;SDS011;43289;52.962;6.196;2022-09-23T01:03:27;13.98;;;12.48;;
57443;SDS011;43289;52.962;6.196;2022-09-23T01:05:53;16.42;;;13.10;;
57443;SDS011;43289;52.962;6.196;2022-09-23T01:08:19;13.98;;;12.48;;
57443;SDS011;43289;52.962;6.196;2022-09-23T01:14:16;17.02;;;14.40;;
57443;SDS011;43289;52.962;6.196;2022-09-23T01:16:21;17.15;;;14.02;;
57443;SDS011;43289;52.962;6.196;2022-09-23T01:24:10;16.48;;;13.90;;
57443;SDS011;43289;52.962;6.196;2022-09-23T01:29:16;17.67;;;13.77;;
57443;SDS011;43289;52.962;6.196;2022-09-23T01:31:52;16.50;;;13.38;;
57443;SDS011;43289;52.962;6.196;2022-09-23T01:34:38;17.80;;;14.65;;
57443;SDS011;43289;52.962;6.196;2022-09-23T01:39:52;16.05;;;14.35;;
57443;SDS011;43289;52.962;6.196;2022-09-23T01:44:52;19.65;;;17.08;;
57443;SDS011;43289;52.962;6.196;2022-09-23T01:49:50;16.88;;;13.75;;
57443;SDS011;43289;52.962;6.196;2022-09-23T01:52:29;18.75;;;14.55;;
57443;SDS011;43289;52.962;6.196;2022-09-23T01:55:17;18.50;;;13.95;;
57443;SDS011;43289;52.962;6.196;2022-09-23T01:57:52;17.90;;;14.20;;
57443;SDS011;43289;52.962;6.196;2022-09-23T02:00:19;18.35;;;14.25;;
57443;SDS011;43289;52.962;6.196;2022-09-23T02:02:49;15.23;;;13.32;;
57443;SDS011;43289;52.962;6.196;2022-09-23T02:07:52;16.55;;;13.30;;
57443;SDS011;43289;52.962;6.196;2022-09-23T02:10:23;17.23;;;13.48;;
57443;SDS011;43289;52.962;6.196;2022-09-23T02:12:52;15.93;;;13.63;;
57443;SDS011;43289;52.962;6.196;2022-09-23T02:15:23;15.10;;;13.48;;
57443;SDS011;43289;52.962;6.196;2022-09-23T02:17:50;16.58;;;13.75;;
57443;SDS011;43289;52.962;6.196;2022-09-23T02:20:18;18.13;;;13.75;;
57443;SDS011;43289;52.962;6.196;2022-09-23T02:25:12;16.75;;;14.32;;
57443;SDS011;43289;52.962;6.196;2022-09-23T02:30:14;17.00;;;13.43;;
57443;SDS011;43289;52.962;6.196;2022-09-23T02:35:37;15.70;;;14.05;;
57443;SDS011;43289;52.962;6.196;2022-09-23T02:38:14;17.60;;;14.98;;
57443;SDS011;43289;52.962;6.196;2022-09-23T02:40:49;15.27;;;13.35;;
57443;SDS011;43289;52.962;6.196;2022-09-23T02:43:30;15.60;;;13.63;;
57443;SDS011;43289;52.962;6.196;2022-09-23T02:46:02;18.35;;;15.30;;
57443;SDS011;43289;52.962;6.196;2022-09-23T02:48:31;16.05;;;14.35;;
57443;SDS011;43289;52.962;6.196;2022-09-23T02:50:58;17.23;;;14.68;;
57443;SDS011;43289;52.962;6.196;2022-09-23T02:53:26;18.08;;;14.95;;
57443;SDS011;43289;52.962;6.196;2022-09-23T02:55:55;18.65;;;14.55;;
57443;SDS011;43289;52.962;6.196;2022-09-23T02:58:22;16.58;;;14.77;;
57443;SDS011;43289;52.962;6.196;2022-09-23T03:03:35;16.65;;;13.77;;
57443;SDS011;43289;52.962;6.196;2022-09-23T03:06:26;18.58;;;15.70;;
57443;SDS011;43289;52.962;6.196;2022-09-23T03:08:56;17.73;;;15.32;;
57443;SDS011;43289;52.962;6.196;2022-09-23T03:11:23;18.00;;;14.70;;
57443;SDS011;43289;52.962;6.196;2022-09-23T03:21:31;16.73;;;14.88;;
57443;SDS011;43289;52.962;6.196;2022-09-23T03:23:59;14.82;;;12.52;;
57443;SDS011;43289;52.962;6.196;2022-09-23T03:26:30;18.60;;;14.30;;
57443;SDS011;43289;52.962;6.196;2022-09-23T03:28:57;17.95;;;15.30;;
57443;SDS011;43289;52.962;6.196;2022-09-23T03:31:23;18.58;;;15.57;;
57443;SDS011;43289;52.962;6.196;2022-09-23T03:33:51;17.85;;;15.07;;
57443;SDS011;43289;52.962;6.196;2022-09-23T03:36:21;16.63;;;14.40;;
57443;SDS011;43289;52.962;6.196;2022-09-23T03:39:09;18.30;;;14.52;;
57443;SDS011;43289;52.962;6.196;2022-09-23T03:41:37;16.25;;;14.35;;
57443;SDS011;43289;52.962;6.196;2022-09-23T03:44:04;15.40;;;13.00;;
57443;SDS011;43289;52.962;6.196;2022-09-23T03:46:32;16.48;;;13.77;;
57443;SDS011;43289;52.962;6.196;2022-09-23T03:49:02;17.17;;;14.45;;
57443;SDS011;43289;52.962;6.196;2022-09-23T03:51:33;17.08;;;13.60;;
57443;SDS011;43289;52.962;6.196;2022-09-23T03:53:59;16.80;;;14.27;;
57443;SDS011;43289;52.962;6.196;2022-09-23T03:56:26;17.40;;;14.20;;
57443;SDS011;43289;52.962;6.196;2022-09-23T03:58:52;16.60;;;13.32;;
57443;SDS011;43289;52.962;6.196;2022-09-23T04:01:19;22.08;;;15.25;;
57443;SDS011;43289;52.962;6.196;2022-09-23T04:03:45;19.95;;;14.88;;
57443;SDS011;43289;52.962;6.196;2022-09-23T04:06:14;17.45;;;14.43;;
57443;SDS011;43289;52.962;6.196;2022-09-23T04:08:41;16.58;;;13.55;;
57443;SDS011;43289;52.962;6.196;2022-09-23T04:11:07;21.42;;;14.98;;
57443;SDS011;43289;52.962;6.196;2022-09-23T04:13:33;18.38;;;15.45;;
57443;SDS011;43289;52.962;6.196;2022-09-23T04:16:00;15.68;;;13.32;;
57443;SDS011;43289;52.962;6.196;2022-09-23T04:18:26;22.08;;;16.80;;
57443;SDS011;43289;52.962;6.196;2022-09-23T04:20:58;19.73;;;15.85;;
57443;SDS011;43289;52.962;6.196;2022-09-23T04:23:25;15.48;;;13.88;;
57443;SDS011;43289;52.962;6.196;2022-09-23T04:25:51;19.65;;;14.85;;
57443;SDS011;43289;52.962;6.196;2022-09-23T04:28:19;16.85;;;14.80;;
57443;SDS011;43289;52.962;6.196;2022-09-23T04:30:45;16.02;;;14.27;;
57443;SDS011;43289;52.962;6.196;2022-09-23T04:33:12;19.33;;;15.25;;
57443;SDS011;43289;52.962;6.196;2022-09-23T04:35:40;17.55;;;15.65;;
57443;SDS011;43289;52.962;6.196;2022-09-23T04:38:10;17.25;;;14.20;;
57443;SDS011;43289;52.962;6.196;2022-09-23T04:40:37;17.85;;;15.40;;
57443;SDS011;43289;52.962;6.196;2022-09-23T04:43:03;18.65;;;14.40;;
57443;SDS011;43289;52.962;6.196;2022-09-23T04:45:29;19.75;;;16.30;;
57443;SDS011;43289;52.962;6.196;2022-09-23T04:47:55;16.38;;;14.70;;
57443;SDS011;43289;52.962;6.196;2022-09-23T04:50:22;16.85;;;14.18;;
57443;SDS011;43289;52.962;6.196;2022-09-23T04:52:49;15.63;;;14.02;;
57443;SDS011;43289;52.962;6.196;2022-09-23T04:55:15;16.55;;;14.60;;
57443;SDS011;43289;52.962;6.196;2022-09-23T04:57:42;17.45;;;13.05;;
57443;SDS011;43289;52.962;6.196;2022-09-23T05:00:09;16.00;;;14.30;;
57443;SDS011;43289;52.962;6.196;2022-09-23T05:02:45;17.85;;;15.10;;
57443;SDS011;43289;52.962;6.196;2022-09-23T05:05:12;18.60;;;14.80;;
57443;SDS011;43289;52.962;6.196;2022-09-23T05:07:38;17.08;;;15.27;;
57443;SDS011;43289;52.962;6.196;2022-09-23T05:10:05;16.77;;;14.52;;
57443;SDS011;43289;52.962;6.196;2022-09-23T05:12:31;18.58;;;14.55;;
57443;SDS011;43289;52.962;6.196;2022-09-23T05:14:57;16.27;;;14.57;;
57443;SDS011;43289;52.962;6.196;2022-09-23T05:17:23;17.70;;;14.60;;
57443;SDS011;43289;52.962;6.196;2022-09-23T05:19:49;17.58;;;15.75;;
57443;SDS011;43289;52.962;6.196;2022-09-23T05:22:15;16.85;;;15.05;;
57443;SDS011;43289;52.962;6.196;2022-09-23T05:24:41;17.55;;;15.02;;
57443;SDS011;43289;52.962;6.196;2022-09-23T05:27:07;16.88;;;14.65;;
57443;SDS011;43289;52.962;6.196;2022-09-23T05:29:33;16.63;;;14.70;;
57443;SDS011;43289;52.962;6.196;2022-09-23T05:32:00;18.95;;;15.68;;
57443;SDS011;43289;52.962;6.196;2022-09-23T05:34:26;17.02;;;14.30;;
57443;SDS011;43289;52.962;6.196;2022-09-23T05:36:52;18.13;;;15.35;;
57443;SDS011;43289;52.962;6.196;2022-09-23T05:39:18;16.95;;;14.20;;
57443;SDS011;43289;52.962;6.196;2022-09-23T05:41:44;17.70;;;15.73;;
57443;SDS011;43289;52.962;6.196;2022-09-23T05:44:10;21.00;;;15.57;;
57443;SDS011;43289;52.962;6.196;2022-09-23T05:46:36;17.55;;;15.00;;
57443;SDS011;43289;52.962;6.196;2022-09-23T05:49:02;17.58;;;14.95;;
57443;SDS011;43289;52.962;6.196;2022-09-23T05:51:30;16.35;;;13.65;;
57443;SDS011;43289;52.962;6.196;2022-09-23T05:53:56;19.05;;;16.98;;
57443;SDS011;43289;52.962;6.196;2022-09-23T05:56:23;19.40;;;16.15;;
57443;SDS011;43289;52.962;6.196;2022-09-23T05:58:50;19.52;;;17.45;;
57443;SDS011;43289;52.962;6.196;2022-09-23T06:01:18;16.90;;;15.02;;
57443;SDS011;43289;52.962;6.196;2022-09-23T06:03:49;19.33;;;16.27;;
57443;SDS011;43289;52.962;6.196;2022-09-23T06:06:16;19.92;;;16.65;;
57443;SDS011;43289;52.962;6.196;2022-09-23T06:08:42;18.52;;;15.27;;
57443;SDS011;43289;52.962;6.196;2022-09-23T06:11:09;18.63;;;15.35;;
57443;SDS011;43289;52.962;6.196;2022-09-23T06:13:36;19.92;;;16.85;;
57443;SDS011;43289;52.962;6.196;2022-09-23T06:16:10;18.38;;;16.10;;
57443;SDS011;43289;52.962;6.196;2022-09-23T06:18:37;18.02;;;16.08;;
57443;SDS011;43289;52.962;6.196;2022-09-23T06:21:03;21.10;;;16.52;;
57443;SDS011;43289;52.962;6.196;2022-09-23T06:23:30;18.25;;;15.77;;
57443;SDS011;43289;52.962;6.196;2022-09-23T06:25:59;18.02;;;15.88;;
57443;SDS011;43289;52.962;6.196;2022-09-23T06:28:32;18.00;;;16.02;;
57443;SDS011;43289;52.962;6.196;2022-09-23T06:31:01;18.77;;;16.77;;
57443;SDS011;43289;52.962;6.196;2022-09-23T06:33:27;17.70;;;15.60;;
57443;SDS011;43289;52.962;6.196;2022-09-23T06:35:54;20.17;;;15.98;;
57443;SDS011;43289;52.962;6.196;2022-09-23T06:38:21;19.35;;;16.58;;
57443;SDS011;43289;52.962;6.196;2022-09-23T06:40:50;23.15;;;17.83;;
57443;SDS011;43289;52.962;6.196;2022-09-23T06:43:16;16.73;;;15.00;;
57443;SDS011;43289;52.962;6.196;2022-09-23T06:45:43;18.35;;;16.20;;
57443;SDS011;43289;52.962;6.196;2022-09-23T06:48:10;18.00;;;14.68;;
57443;SDS011;43289;52.962;6.196;2022-09-23T06:50:36;18.30;;;16.17;;
57443;SDS011;43289;52.962;6.196;2022-09-23T06:53:03;16.92;;;14.93;;
57443;SDS011;43289;52.962;6.196;2022-09-23T06:55:29;17.52;;;15.02;;
57443;SDS011;43289;52.962;6.196;2022-09-23T06:57:56;22.58;;;15.20;;
57443;SDS011;43289;52.962;6.196;2022-09-23T07:00:23;16.77;;;14.93;;
57443;SDS011;43289;52.962;6.196;2022-09-23T07:02:49;16.70;;;14.63;;
57443;SDS011;43289;52.962;6.196;2022-09-23T07:05:15;19.40;;;15.48;;
57443;SDS011;43289;52.962;6.196;2022-09-23T07:07:42;19.00;;;16.63;;
57443;SDS011;43289;52.962;6.196;2022-09-23T07:10:08;19.48;;;15.52;;
57443;SDS011;43289;52.962;6.196;2022-09-23T07:12:35;16.13;;;14.05;;
57443;SDS011;43289;52.962;6.196;2022-09-23T07:15:01;18.10;;;16.10;;
57443;SDS011;43289;52.962;6.196;2022-09-23T07:17:27;19.92;;;15.80;;
57443;SDS011;43289;52.962;6.196;2022-09-23T07:19:54;16.50;;;14.73;;
57443;SDS011;43289;52.962;6.196;2022-09-23T07:22:21;16.90;;;13.80;;
57443;SDS011;43289;52.962;6.196;2022-09-23T07:24:48;14.95;;;13.35;;
57443;SDS011;43289;52.962;6.196;2022-09-23T07:27:14;16.42;;;14.57;;
57443;SDS011;43289;52.962;6.196;2022-09-23T07:29:44;18.85;;;15.82;;
57443;SDS011;43289;52.962;6.196;2022-09-23T07:32:14;15.70;;;13.15;;
57443;SDS011;43289;52.962;6.196;2022-09-23T07:34:40;17.13;;;15.35;;
57443;SDS011;43289;52.962;6.196;2022-09-23T07:37:07;16.63;;;14.93;;
57443;SDS011;43289;52.962;6.196;2022-09-23T07:39:35;16.30;;;14.55;;
57443;SDS011;43289;52.962;6.196;2022-09-23T07:42:02;16.02;;;13.90;;
57443;SDS011;43289;52.962;6.196;2022-09-23T07:44:29;17.13;;;14.95;;
57443;SDS011;43289;52.962;6.196;2022-09-23T07:46:56;17.17;;;14.48;;
57443;SDS011;43289;52.962;6.196;2022-09-23T07:49:22;16.55;;;14.75;;
57443;SDS011;43289;52.962;6.196;2022-09-23T07:51:49;15.43;;;13.25;;
57443;SDS011;43289;52.962;6.196;2022-09-23T07:54:17;17.63;;;14.25;;
57443;SDS011;43289;52.962;6.196;2022-09-23T07:56:43;16.73;;;13.73;;
57443;SDS011;43289;52.962;6.196;2022-09-23T07:59:12;17.08;;;14.00;;
57443;SDS011;43289;52.962;6.196;2022-09-23T08:01:46;13.75;;;12.18;;
57443;SDS011;43289;52.962;6.196;2022-09-23T08:04:17;17.10;;;13.13;;
57443;SDS011;43289;52.962;6.196;2022-09-23T08:06:51;14.10;;;12.60;;
57443;SDS011;43289;52.962;6.196;2022-09-23T08:09:18;15.43;;;12.30;;
57443;SDS011;43289;52.962;6.196;2022-09-23T08:11:47;14.68;;;13.13;;
57443;SDS011;43289;52.962;6.196;2022-09-23T08:14:14;13.98;;;11.95;;
57443;SDS011;43289;52.962;6.196;2022-09-23T08:16:41;15.75;;;13.32;;
57443;SDS011;43289;52.962;6.196;2022-09-23T08:19:09;15.75;;;12.32;;
57443;SDS011;43289;52.962;6.196;2022-09-23T08:21:35;14.43;;;11.50;;
57443;SDS011;43289;52.962;6.196;2022-09-23T08:24:03;17.48;;;11.90;;
57443;SDS011;43289;52.962;6.196;2022-09-23T08:26:29;14.27;;;12.00;;
57443;SDS011;43289;52.962;6.196;2022-09-23T08:28:58;13.63;;;11.98;;
57443;SDS011;43289;52.962;6.196;2022-09-23T08:31:24;16.40;;;13.55;;
57443;SDS011;43289;52.962;6.196;2022-09-23T08:33:53;14.98;;;11.63;;
57443;SDS011;43289;52.962;6.196;2022-09-23T08:36:20;14.23;;;11.45;;
57443;SDS011;43289;52.962;6.196;2022-09-23T08:38:46;16.65;;;12.23;;
57443;SDS011;43289;52.962;6.196;2022-09-23T08:41:17;16.50;;;12.05;;
57443;SDS011;43289;52.962;6.196;2022-09-23T08:43:47;15.30;;;11.73;;
57443;SDS011;43289;52.962;6.196;2022-09-23T08:46:16;11.52;;;10.32;;
57443;SDS011;43289;52.962;6.196;2022-09-23T08:48:44;13.07;;;11.00;;
57443;SDS011;43289;52.962;6.196;2022-09-23T08:51:23;12.93;;;11.45;;
57443;SDS011;43289;52.962;6.196;2022-09-23T08:53:50;12.88;;;11.15;;
57443;SDS011;43289;52.962;6.196;2022-09-23T08:56:18;12.45;;;10.85;;
57443;SDS011;43289;52.962;6.196;2022-09-23T08:58:57;12.55;;;10.18;;
57443;SDS011;43289;52.962;6.196;2022-09-23T09:01:37;14.15;;;11.07;;
57443;SDS011;43289;52.962;6.196;2022-09-23T09:06:53;15.10;;;10.73;;
57443;SDS011;43289;52.962;6.196;2022-09-23T09:11:51;12.80;;;11.00;;
57443;SDS011;43289;52.962;6.196;2022-09-23T09:14:28;13.95;;;9.93;;
57443;SDS011;43289;52.962;6.196;2022-09-23T09:17:00;13.10;;;10.30;;
57443;SDS011;43289;52.962;6.196;2022-09-23T09:22:04;12.60;;;10.48;;
57443;SDS011;43289;52.962;6.196;2022-09-23T09:24:36;13.00;;;10.43;;
57443;SDS011;43289;52.962;6.196;2022-09-23T09:27:09;14.32;;;11.23;;
57443;SDS011;43289;52.962;6.196;2022-09-23T09:29:37;13.82;;;11.07;;
57443;SDS011;43289;52.962;6.196;2022-09-23T09:33:08;15.15;;;10.25;;
57443;SDS011;43289;52.962;6.196;2022-09-23T09:35:00;13.67;;;10.87;;
57443;SDS011;43289;52.962;6.196;2022-09-23T09:37:32;14.15;;;11.15;;
57443;SDS011;43289;52.962;6.196;2022-09-23T09:40:01;15.02;;;11.27;;
57443;SDS011;43289;52.962;6.196;2022-09-23T09:42:40;17.27;;;11.30;;
57443;SDS011;43289;52.962;6.196;2022-09-23T09:45:11;12.07;;;10.57;;
57443;SDS011;43289;52.962;6.196;2022-09-23T09:47:58;13.52;;;10.68;;
57443;SDS011;43289;52.962;6.196;2022-09-23T09:56:08;13.98;;;10.50;;
57443;SDS011;43289;52.962;6.196;2022-09-23T10:01:22;14.57;;;10.80;;
57443;SDS011;43289;52.962;6.196;2022-09-23T10:03:49;11.80;;;10.43;;
57443;SDS011;43289;52.962;6.196;2022-09-23T10:06:20;13.02;;;10.18;;
57443;SDS011;43289;52.962;6.196;2022-09-23T10:11:27;13.63;;;9.85;;
57443;SDS011;43289;52.962;6.196;2022-09-23T10:14:02;13.50;;;10.40;;
57443;SDS011;43289;52.962;6.196;2022-09-23T10:16:29;12.80;;;10.65;;
57443;SDS011;43289;52.962;6.196;2022-09-23T10:18:56;14.20;;;10.88;;
57443;SDS011;43289;52.962;6.196;2022-09-23T10:21:24;13.60;;;10.25;;
57443;SDS011;43289;52.962;6.196;2022-09-23T10:23:53;11.95;;;10.13;;
57443;SDS011;43289;52.962;6.196;2022-09-23T10:26:28;17.42;;;11.27;;
57443;SDS011;43289;52.962;6.196;2022-09-23T10:28:56;15.43;;;12.20;;
57443;SDS011;43289;52.962;6.196;2022-09-23T10:31:24;15.05;;;11.82;;
57443;SDS011;43289;52.962;6.196;2022-09-23T10:33:55;15.00;;;11.48;;
57443;SDS011;43289;52.962;6.196;2022-09-23T10:36:23;16.02;;;10.68;;
57443;SDS011;43289;52.962;6.196;2022-09-23T10:38:51;14.35;;;11.73;;
57443;SDS011;43289;52.962;6.196;2022-09-23T10:41:22;13.57;;;10.85;;
57443;SDS011;43289;52.962;6.196;2022-09-23T10:49:43;12.52;;;11.23;;
57443;SDS011;43289;52.962;6.196;2022-09-23T11:02:44;13.35;;;10.52;;
57443;SDS011;43289;52.962;6.196;2022-09-23T11:07:44;12.88;;;11.57;;
57443;SDS011;43289;52.962;6.196;2022-09-23T11:12:47;14.90;;;11.60;;
57443;SDS011;43289;52.962;6.196;2022-09-23T11:15:36;13.70;;;10.57;;
57443;SDS011;43289;52.962;6.196;2022-09-23T11:25:53;12.82;;;11.23;;
57443;SDS011;43289;52.962;6.196;2022-09-23T11:33:26;13.60;;;11.55;;
57443;SDS011;43289;52.962;6.196;2022-09-23T11:35:56;13.77;;;10.52;;
57443;SDS011;43289;52.962;6.196;2022-09-23T11:38:29;13.68;;;10.93;;
57443;SDS011;43289;52.962;6.196;2022-09-23T11:41:07;12.98;;;10.65;;
57443;SDS011;43289;52.962;6.196;2022-09-23T11:43:36;14.20;;;11.35;;
57443;SDS011;43289;52.962;6.196;2022-09-23T11:49:02;13.43;;;10.23;;
57443;SDS011;43289;52.962;6.196;2022-09-23T11:54:27;14.15;;;11.18;;
57443;SDS011;43289;52.962;6.196;2022-09-23T11:56:55;12.80;;;11.23;;
57443;SDS011;43289;52.962;6.196;2022-09-23T11:59:37;17.70;;;11.38;;
57443;SDS011;43289;52.962;6.196;2022-09-23T12:02:27;17.05;;;10.95;;
57443;SDS011;43289;52.962;6.196;2022-09-23T12:05:34;13.35;;;10.52;;
57443;SDS011;43289;52.962;6.196;2022-09-23T12:07:54;13.80;;;11.10;;
57443;SDS011;43289;52.962;6.196;2022-09-23T12:10:22;14.77;;;11.48;;
57443;SDS011;43289;52.962;6.196;2022-09-23T12:23:01;13.50;;;10.07;;
57443;SDS011;43289;52.962;6.196;2022-09-23T12:25:36;20.60;;;11.32;;
57443;SDS011;43289;52.962;6.196;2022-09-23T12:28:26;18.20;;;10.90;;
57443;SDS011;43289;52.962;6.196;2022-09-23T12:30:56;13.43;;;10.50;;
57443;SDS011;43289;52.962;6.196;2022-09-23T12:33:24;13.65;;;11.43;;
57443;SDS011;43289;52.962;6.196;2022-09-23T12:35:55;12.45;;;10.68;;
57443;SDS011;43289;52.962;6.196;2022-09-23T12:38:37;14.80;;;10.98;;
57443;SDS011;43289;52.962;6.196;2022-09-23T12:41:47;13.90;;;9.65;;
57443;SDS011;43289;52.962;6.196;2022-09-23T12:44:12;12.48;;;9.20;;
57443;SDS011;43289;52.962;6.196;2022-09-23T12:46:39;11.80;;;10.30;;
57443;SDS011;43289;52.962;6.196;2022-09-23T12:49:20;13.55;;;10.57;;
57443;SDS011;43289;52.962;6.196;2022-09-23T12:54:33;13.63;;;10.47;;
57443;SDS011;43289;52.962;6.196;2022-09-23T12:57:00;12.35;;;10.32;;
57443;SDS011;43289;52.962;6.196;2022-09-23T12:59:27;13.60;;;10.98;;
57443;SDS011;43289;52.962;6.196;2022-09-23T13:01:54;13.82;;;10.50;;
57443;SDS011;43289;52.962;6.196;2022-09-23T13:04:26;13.90;;;9.02;;
57443;SDS011;43289;52.962;6.196;2022-09-23T13:07:13;12.55;;;10.50;;
57443;SDS011;43289;52.962;6.196;2022-09-23T13:09:41;13.50;;;10.25;;
57443;SDS011;43289;52.962;6.196;2022-09-23T13:12:16;13.43;;;10.35;;
57443;SDS011;43289;52.962;6.196;2022-09-23T13:14:44;11.95;;;9.30;;
57443;SDS011;43289;52.962;6.196;2022-09-23T13:17:23;14.05;;;11.13;;
57443;SDS011;43289;52.962;6.196;2022-09-23T13:20:51;12.93;;;10.52;;
57443;SDS011;43289;52.962;6.196;2022-09-23T13:25:18;13.77;;;9.98;;
57443;SDS011;43289;52.962;6.196;2022-09-23T13:27:46;12.15;;;9.60;;
57443;SDS011;43289;52.962;6.196;2022-09-23T13:32:43;17.33;;;11.70;;
57443;SDS011;43289;52.962;6.196;2022-09-23T13:37:41;12.13;;;10.60;;
57443;SDS011;43289;52.962;6.196;2022-09-23T13:42:33;15.07;;;10.15;;
57443;SDS011;43289;52.962;6.196;2022-09-23T13:45:04;16.92;;;12.10;;
57443;SDS011;43289;52.962;6.196;2022-09-23T13:47:30;15.90;;;12.35;;
57443;SDS011;43289;52.962;6.196;2022-09-23T13:49:58;14.15;;;10.90;;
57443;SDS011;43289;52.962;6.196;2022-09-23T13:52:27;13.27;;;11.68;;
57443;SDS011;43289;52.962;6.196;2022-09-23T13:54:54;17.40;;;12.35;;
57443;SDS011;43289;52.962;6.196;2022-09-23T13:57:24;17.30;;;13.15;;
57443;SDS011;43289;52.962;6.196;2022-09-23T13:59:50;15.07;;;12.77;;
57443;SDS011;43289;52.962;6.196;2022-09-23T14:02:17;13.43;;;10.88;;
57443;SDS011;43289;52.962;6.196;2022-09-23T14:04:49;14.52;;;11.38;;
57443;SDS011;43289;52.962;6.196;2022-09-23T14:07:15;12.93;;;11.15;;
57443;SDS011;43289;52.962;6.196;2022-09-23T14:09:44;17.40;;;13.18;;
57443;SDS011;43289;52.962;6.196;2022-09-23T14:12:11;14.00;;;11.77;;
57443;SDS011;43289;52.962;6.196;2022-09-23T14:14:38;17.45;;;13.23;;
57443;SDS011;43289;52.962;6.196;2022-09-23T14:17:05;16.95;;;12.30;;
57443;SDS011;43289;52.962;6.196;2022-09-23T14:19:32;16.33;;;11.82;;
57443;SDS011;43289;52.962;6.196;2022-09-23T14:21:59;13.95;;;12.07;;
57443;SDS011;43289;52.962;6.196;2022-09-23T14:26:55;15.52;;;12.63;;
57443;SDS011;43289;52.962;6.196;2022-09-23T14:29:22;14.52;;;12.57;;
57443;SDS011;43289;52.962;6.196;2022-09-23T14:31:53;15.30;;;12.45;;
57443;SDS011;43289;52.962;6.196;2022-09-23T14:36:50;14.32;;;11.70;;
57443;SDS011;43289;52.962;6.196;2022-09-23T14:39:35;16.95;;;12.88;;
57443;SDS011;43289;52.962;6.196;2022-09-23T14:42:01;19.73;;;16.27;;
57443;SDS011;43289;52.962;6.196;2022-09-23T14:44:30;19.50;;;14.85;;
57443;SDS011;43289;52.962;6.196;2022-09-23T14:46:59;16.02;;;13.32;;
57443;SDS011;43289;52.962;6.196;2022-09-23T14:49:26;15.13;;;13.30;;
57443;SDS011;43289;52.962;6.196;2022-09-23T14:51:59;20.35;;;15.25;;
57443;SDS011;43289;52.962;6.196;2022-09-23T14:56:55;16.25;;;12.95;;
57443;SDS011;43289;52.962;6.196;2022-09-23T14:59:26;16.35;;;13.93;;
57443;SDS011;43289;52.962;6.196;2022-09-23T15:01:54;15.75;;;13.60;;
57443;SDS011;43289;52.962;6.196;2022-09-23T15:06:50;17.55;;;14.88;;
57443;SDS011;43289;52.962;6.196;2022-09-23T15:09:22;19.35;;;14.65;;
57443;SDS011;43289;52.962;6.196;2022-09-23T15:11:50;18.88;;;15.18;;
57443;SDS011;43289;52.962;6.196;2022-09-23T15:14:17;15.80;;;14.10;;
57443;SDS011;43289;52.962;6.196;2022-09-23T15:16:44;18.30;;;14.60;;
57443;SDS011;43289;52.962;6.196;2022-09-23T15:19:14;18.63;;;13.98;;
57443;SDS011;43289;52.962;6.196;2022-09-23T15:21:42;20.23;;;13.77;;
57443;SDS011;43289;52.962;6.196;2022-09-23T15:26:55;16.73;;;14.18;;
57443;SDS011;43289;52.962;6.196;2022-09-23T15:29:22;16.48;;;13.07;;
57443;SDS011;43289;52.962;6.196;2022-09-23T15:31:50;16.83;;;14.30;;
57443;SDS011;43289;52.962;6.196;2022-09-23T15:34:19;16.63;;;13.60;;
57443;SDS011;43289;52.962;6.196;2022-09-23T15:36:45;22.65;;;12.77;;
57443;SDS011;43289;52.962;6.196;2022-09-23T15:39:12;16.88;;;12.20;;
57443;SDS011;43289;52.962;6.196;2022-09-23T15:41:38;17.88;;;13.55;;
57443;SDS011;43289;52.962;6.196;2022-09-23T15:44:11;14.93;;;11.57;;
57443;SDS011;43289;52.962;6.196;2022-09-23T15:46:38;18.63;;;13.70;;
57443;SDS011;43289;52.962;6.196;2022-09-23T15:49:09;17.42;;;12.65;;
57443;SDS011;43289;52.962;6.196;2022-09-23T15:51:40;15.40;;;12.63;;
57443;SDS011;43289;52.962;6.196;2022-09-23T15:54:13;14.45;;;12.77;;
57443;SDS011;43289;52.962;6.196;2022-09-23T15:56:39;15.82;;;12.32;;
57443;SDS011;43289;52.962;6.196;2022-09-23T15:59:06;14.45;;;11.50;;
57443;SDS011;43289;52.962;6.196;2022-09-23T16:01:33;13.85;;;12.35;;
57443;SDS011;43289;52.962;6.196;2022-09-23T16:04:03;15.30;;;12.00;;
57443;SDS011;43289;52.962;6.196;2022-09-23T16:06:30;15.15;;;11.82;;
57443;SDS011;43289;52.962;6.196;2022-09-23T16:08:57;18.70;;;12.15;;
57443;SDS011;43289;52.962;6.196;2022-09-23T16:11:24;13.73;;;12.18;;
57443;SDS011;43289;52.962;6.196;2022-09-23T16:13:52;15.75;;;12.25;;
57443;SDS011;43289;52.962;6.196;2022-09-23T16:16:18;15.25;;;13.00;;
57443;SDS011;43289;52.962;6.196;2022-09-23T16:18:47;16.83;;;12.82;;
57443;SDS011;43289;52.962;6.196;2022-09-23T16:21:15;14.40;;;12.30;;
57443;SDS011;43289;52.962;6.196;2022-09-23T16:23:43;15.90;;;12.35;;
57443;SDS011;43289;52.962;6.196;2022-09-23T16:28:42;14.48;;;11.57;;
57443;SDS011;43289;52.962;6.196;2022-09-23T16:31:08;15.73;;;11.50;;
57443;SDS011;43289;52.962;6.196;2022-09-23T16:33:37;15.25;;;11.55;;
57443;SDS011;43289;52.962;6.196;2022-09-23T16:36:04;15.27;;;12.57;;
57443;SDS011;43289;52.962;6.196;2022-09-23T16:40:59;14.80;;;11.25;;
57443;SDS011;43289;52.962;6.196;2022-09-23T16:43:27;15.38;;;11.73;;
57443;SDS011;43289;52.962;6.196;2022-09-23T16:46:03;17.00;;;11.93;;
57443;SDS011;43289;52.962;6.196;2022-09-23T16:48:29;22.17;;;11.80;;
57443;SDS011;43289;52.962;6.196;2022-09-23T16:50:56;15.95;;;12.48;;
57443;SDS011;43289;52.962;6.196;2022-09-23T16:53:22;13.10;;;10.98;;
57443;SDS011;43289;52.962;6.196;2022-09-23T16:55:49;13.98;;;11.80;;
57443;SDS011;43289;52.962;6.196;2022-09-23T16:58:17;16.10;;;13.50;;